| time (UTC) | temp C | wind direction | speed KPH | gust KPH | rain 1hr cm | rain 24hr cm | rain mn cm | humidity % | barometer mb |
| 20260503033020 | 11 | 211 | 4.8 | 8.0 | 0.00 | 0.03 | 0.03 | 68 | 1015.0 |
| 20260503032508 | 11 | 211 | 4.8 | 9.7 | 0.00 | 0.03 | 0.03 | 67 | 1015.0 |
| 20260503032008 | 12 | 211 | 4.8 | 9.7 | 0.00 | 0.03 | 0.03 | 67 | 1014.9 |
| 20260503031518 | 12 | 211 | 6.4 | 11.3 | 0.00 | 0.03 | 0.03 | 66 | 1014.7 |
| 20260503031008 | 12 | 211 | 6.4 | 11.3 | 0.00 | 0.03 | 0.03 | 67 | 1014.9 |
| 20260503030506 | 12 | 211 | 6.4 | 9.7 | 0.00 | 0.03 | 0.03 | 68 | 1014.9 |
| 20260503030045 | 13 | 211 | 6.4 | 11.3 | 0.00 | 0.03 | 0.03 | 66 | 1014.9 |
| 20260503025509 | 13 | 211 | 8.0 | 12.9 | 0.00 | 0.03 | 0.03 | 66 | 1014.9 |
| 20260503025010 | 13 | 211 | 9.7 | 12.9 | 0.00 | 0.03 | 0.03 | 66 | 1014.9 |
| 20260503024528 | 13 | 211 | 6.4 | 9.7 | 0.00 | 0.03 | 0.03 | 69 | 1015.0 |
| 20260503024011 | 14 | 211 | 6.4 | 9.7 | 0.00 | 0.03 | 0.03 | 69 | 1014.8 |
| 20260503023517 | 14 | 211 | 4.8 | 8.0 | 0.00 | 0.03 | 0.03 | 61 | 1014.7 |
| 20260503023026 | 14 | 211 | 6.4 | 8.0 | 0.00 | 0.03 | 0.03 | 61 | 1014.7 |
| 20260503022509 | 15 | 211 | 4.8 | 6.4 | 0.00 | 0.03 | 0.03 | 62 | 1014.5 |
| 20260503022006 | 15 | 211 | 4.8 | 6.4 | 0.00 | 0.03 | 0.03 | 50 | 1014.6 |
| 20260503021536 | 15 | 211 | 3.2 | 4.8 | 0.00 | 0.03 | 0.03 | 50 | 1014.7 |
| 20260503021007 | 15 | 211 | 3.2 | 6.4 | 0.00 | 0.03 | 0.03 | 52 | 1014.8 |
| 20260503020507 | 15 | 211 | 3.2 | 8.0 | 0.00 | 0.03 | 0.03 | 53 | 1014.7 |
| 20260503020020 | 15 | 211 | 4.8 | 8.0 | 0.00 | 0.03 | 0.03 | 55 | 1014.7 |
| 20260503015513 | 15 | 211 | 6.4 | 8.0 | 0.00 | 0.03 | 0.03 | 58 | 1014.9 |
| 20260503015006 | 15 | 211 | 6.4 | 8.0 | 0.00 | 0.03 | 0.03 | 56 | 1015.0 |
| 20260503014523 | 16 | 211 | 3.2 | 6.4 | 0.00 | 0.03 | 0.03 | 59 | 1015.1 |
| 20260503014008 | 16 | 211 | 3.2 | 8.0 | 0.00 | 0.03 | 0.03 | 54 | 1015.2 |
| 20260503013512 | 16 | 211 | 4.8 | 8.0 | 0.00 | 0.03 | 0.03 | 52 | 1015.2 |
| 20260503013028 | 16 | 211 | 3.2 | 8.0 | 0.00 | 0.03 | 0.03 | 51 | 1015.2 |
| 20260503012511 | 17 | 211 | 4.8 | 6.4 | 0.00 | 0.03 | 0.03 | 54 | 1015.3 |
| 20260503012008 | 17 | 211 | 0.0 | 0.0 | 0.00 | 0.03 | 0.03 | 43 | 1015.2 |
| 20260503011528 | 17 | 211 | 0.0 | 3.2 | 0.00 | 0.03 | 0.03 | 49 | 1015.3 |
| 20260503011010 | 17 | 211 | 0.0 | 4.8 | 0.00 | 0.03 | 0.03 | 55 | 1015.3 |
| 20260503010507 | 17 | 211 | 1.6 | 4.8 | 0.00 | 0.03 | 0.03 | 51 | 1015.3 |
| 20260503010017 | 17 | 211 | 1.6 | 6.4 | 0.00 | 0.03 | 0.03 | 49 | 1015.3 |
| 20260503005507 | 17 | 211 | 3.2 | 6.4 | 0.00 | 0.03 | 0.03 | 41 | 1015.5 |
| 20260503005013 | 18 | 211 | 3.2 | 6.4 | 0.00 | 0.03 | 0.03 | 45 | 1015.5 |
| 20260503004504 | 18 | 211 | 3.2 | 6.4 | 0.00 | 0.03 | 0.03 | 45 | 1015.6 |
| 20260503003503 | 17 | 211 | 4.8 | 8.0 | 0.00 | 0.03 | 0.03 | 44 | 1015.6 |
| 20260503003011 | 17 | 211 | 3.2 | 12.9 | 0.00 | 0.03 | 0.03 | 43 | 1015.6 |
| 20260503002528 | 17 | 211 | 4.8 | 16.1 | 0.00 | 0.03 | 0.03 | 46 | 1015.6 |
| 20260503002004 | 17 | 211 | 12.9 | 16.1 | 0.00 | 0.03 | 0.03 | 45 | 1015.6 |
| 20260503001509 | 17 | 198 | 6.4 | 9.7 | 0.00 | 0.03 | 0.03 | 47 | 1015.7 |
| 20260503001007 | 16 | 198 | 0.0 | 6.4 | 0.00 | 0.03 | 0.03 | 48 | 1015.8 |
| 20260503000508 | 16 | 198 | 1.6 | 6.4 | 0.00 | 0.03 | 0.03 | 49 | 1015.8 |
| 20260503000015 | 16 | 198 | 1.6 | 6.4 | 0.00 | 0.03 | 0.03 | 49 | 1015.9 |
| 20260502235510 | 16 | 198 | 0.0 | 6.4 | 0.00 | 0.03 | 0.03 | 46 | 1015.9 |
| 20260502235008 | 16 | 198 | 3.2 | 8.0 | 0.00 | 0.03 | 0.03 | 45 | 1016.0 |
| 20260502234518 | 16 | 198 | 4.8 | 8.0 | 0.00 | 0.03 | 0.03 | 50 | 1016.0 |
| 20260502234008 | 16 | 198 | 3.2 | 6.4 | 0.00 | 0.03 | 0.03 | 52 | 1016.1 |
| 20260502233543 | 16 | 198 | 3.2 | 6.4 | 0.00 | 0.03 | 0.03 | 53 | 1016.1 |
| 20260502233004 | 15 | 198 | 3.2 | 6.4 | 0.00 | 0.03 | 0.03 | 52 | 1016.1 |
| 20260502232508 | 15 | 198 | 3.2 | 11.3 | 0.00 | 0.03 | 0.03 | 57 | 1016.2 |
| 20260502232005 | 15 | 198 | 6.4 | 12.9 | 0.00 | 0.03 | 0.03 | 53 | 1016.3 |
| 20260502231514 | 15 | 198 | 9.7 | 22.5 | 0.00 | 0.03 | 0.03 | 59 | 1016.3 |
| 20260502231004 | 15 | 198 | 11.3 | 22.5 | 0.00 | 0.03 | 0.03 | 57 | 1016.4 |
| 20260502230507 | 14 | 198 | 17.7 | 22.5 | 0.00 | 0.03 | 0.03 | 56 | 1016.6 |
| 20260502230011 | 14 | 192 | 16.1 | 24.1 | 0.00 | 0.03 | 0.03 | 58 | 1016.7 |
| 20260502225506 | 14 | 199 | 19.3 | 30.6 | 0.00 | 0.03 | 0.03 | 58 | 1016.7 |
| 20260502225006 | 14 | 212 | 19.3 | 32.2 | 0.00 | 0.03 | 0.03 | 60 | 1016.8 |
| 20260502224521 | 14 | 230 | 25.7 | 32.2 | 0.00 | 0.03 | 0.03 | 60 | 1016.8 |
| 20260502224007 | 14 | 236 | 24.1 | 37.0 | 0.00 | 0.03 | 0.03 | 63 | 1017.0 |
| 20260502223508 | 14 | 252 | 27.4 | 38.6 | 0.00 | 0.03 | 0.03 | 61 | 1017.1 |
| 20260502223040 | 15 | 247 | 30.6 | 38.6 | 0.00 | 0.03 | 0.03 | 59 | 1017.2 |
| 20260502222512 | 15 | 241 | 22.5 | 33.8 | 0.00 | 0.03 | 0.03 | 55 | 1017.1 |
| 20260502222011 | 15 | 238 | 25.7 | 33.8 | 0.00 | 0.03 | 0.03 | 55 | 1017.1 |
| 20260502221522 | 16 | 241 | 27.4 | 33.8 | 0.00 | 0.03 | 0.03 | 54 | 1017.1 |
| 20260502221004 | 16 | 249 | 11.3 | 22.5 | 0.00 | 0.03 | 0.03 | 49 | 1017.2 |
| 20260502220504 | 16 | 13 | 4.8 | 11.3 | 0.00 | 0.03 | 0.03 | 49 | 1017.2 |
| 20260502220009 | 16 | 13 | 4.8 | 11.3 | 0.00 | 0.03 | 0.03 | 47 | 1017.3 |
| 20260502215507 | 16 | 13 | 6.4 | 11.3 | 0.00 | 0.03 | 0.03 | 51 | 1017.3 |
| 20260502215003 | 16 | 13 | 4.8 | 11.3 | 0.00 | 0.03 | 0.03 | 46 | 1017.5 |
| 20260502214513 | 16 | 13 | 6.4 | 11.3 | 0.00 | 0.03 | 0.03 | 55 | 1017.6 |
| 20260502214009 | 16 | 13 | 4.8 | 8.0 | 0.00 | 0.03 | 0.03 | 49 | 1017.7 |
| 20260502213514 | 16 | 13 | 4.8 | 8.0 | 0.00 | 0.03 | 0.03 | 50 | 1017.8 |
| 20260502213017 | 16 | 13 | 3.2 | 8.0 | 0.00 | 0.03 | 0.03 | 52 | 1017.8 |
| 20260502212508 | 15 | 13 | 4.8 | 9.7 | 0.00 | 0.03 | 0.03 | 53 | 1017.8 |
| 20260502212010 | 15 | 13 | 4.8 | 14.5 | 0.00 | 0.03 | 0.03 | 54 | 1017.9 |
| 20260502211522 | 15 | 13 | 8.0 | 14.5 | 0.00 | 0.03 | 0.03 | 53 | 1018.0 |
| 20260502211009 | 15 | 13 | 12.9 | 14.5 | 0.00 | 0.03 | 0.03 | 58 | 1018.0 |
| 20260502210508 | 16 | 336 | 9.7 | 12.9 | 0.00 | 0.03 | 0.03 | 56 | 1018.0 |
| 20260502210024 | 16 | 335 | 4.8 | 14.5 | 0.00 | 0.03 | 0.03 | 47 | 1018.0 |
| 20260502205506 | 16 | 335 | 6.4 | 14.5 | 0.00 | 0.03 | 0.03 | 45 | 1018.0 |
| 20260502205004 | 16 | 280 | 11.3 | 12.9 | 0.00 | 0.03 | 0.03 | 47 | 1018.1 |
| 20260502204512 | 16 | 280 | 8.0 | 12.9 | 0.00 | 0.03 | 0.03 | 50 | 1018.2 |
| 20260502204007 | 16 | 280 | 9.7 | 14.5 | 0.00 | 0.03 | 0.03 | 47 | 1018.3 |
| 20260502203508 | 17 | 280 | 9.7 | 14.5 | 0.00 | 0.03 | 0.03 | 48 | 1018.3 |
| 20260502203036 | 16 | 280 | 9.7 | 14.5 | 0.00 | 0.03 | 0.03 | 47 | 1018.5 |
| 20260502202507 | 16 | 280 | 8.0 | 11.3 | 0.00 | 0.03 | 0.03 | 47 | 1018.6 |
| 20260502202010 | 16 | 280 | 8.0 | 11.3 | 0.00 | 0.03 | 0.03 | 48 | 1018.6 |
| 20260502201527 | 16 | 280 | 6.4 | 12.9 | 0.00 | 0.03 | 0.03 | 48 | 1018.7 |
| 20260502201010 | 16 | 280 | 8.0 | 12.9 | 0.00 | 0.03 | 0.03 | 46 | 1018.9 |
| 20260502200509 | 16 | 280 | 6.4 | 11.3 | 0.00 | 0.03 | 0.03 | 49 | 1018.9 |
| 20260502200040 | 16 | 280 | 4.8 | 11.3 | 0.00 | 0.03 | 0.03 | 46 | 1019.0 |
| 20260502195509 | 16 | 280 | 6.4 | 14.5 | 0.00 | 0.03 | 0.03 | 48 | 1019.0 |
| 20260502195009 | 16 | 280 | 6.4 | 14.5 | 0.00 | 0.03 | 0.03 | 48 | 1019.1 |
| 20260502194524 | 16 | 280 | 8.0 | 11.3 | 0.00 | 0.03 | 0.03 | 50 | 1019.2 |
| 20260502194019 | 16 | 280 | 8.0 | 12.9 | 0.00 | 0.03 | 0.03 | 49 | 1019.2 |
| 20260502193504 | 16 | 280 | 9.7 | 12.9 | 0.00 | 0.03 | 0.03 | 48 | 1019.3 |
| 20260502193020 | 16 | 280 | 8.0 | 12.9 | 0.00 | 0.03 | 0.03 | 46 | 1019.3 |
| 20260502192505 | 16 | 280 | 8.0 | 12.9 | 0.00 | 0.03 | 0.03 | 49 | 1019.4 |
| 20260502192009 | 16 | 280 | 9.7 | 12.9 | 0.00 | 0.03 | 0.03 | 47 | 1019.4 |
| 20260502191515 | 15 | 280 | 9.7 | 12.9 | 0.00 | 0.03 | 0.03 | 51 | 1019.6 |
| 20260502191008 | 15 | 280 | 6.4 | 11.3 | 0.00 | 0.03 | 0.03 | 49 | 1019.7 |
| 20260502190508 | 15 | 280 | 6.4 | 9.7 | 0.00 | 0.03 | 0.03 | 52 | 1019.7 |
| 20260502190021 | 16 | 280 | 4.8 | 9.7 | 0.00 | 0.03 | 0.03 | 49 | 1019.8 |
| 20260502185508 | 15 | 280 | 4.8 | 9.7 | 0.00 | 0.03 | 0.03 | 48 | 1019.9 |
| 20260502185011 | 15 | 280 | 4.8 | 9.7 | 0.00 | 0.03 | 0.03 | 47 | 1020.0 |
| 20260502184524 | 16 | 280 | 4.8 | 11.3 | 0.00 | 0.03 | 0.03 | 50 | 1020.1 |
| 20260502184008 | 15 | 280 | 8.0 | 11.3 | 0.00 | 0.03 | 0.03 | 51 | 1020.1 |
| 20260502183510 | 15 | 280 | 9.7 | 11.3 | 0.00 | 0.03 | 0.03 | 50 | 1020.2 |
| 20260502183029 | 15 | 280 | 8.0 | 11.3 | 0.00 | 0.03 | 0.03 | 57 | 1020.3 |
| 20260502182514 | 14 | 280 | 8.0 | 11.3 | 0.00 | 0.03 | 0.03 | 59 | 1020.3 |
| 20260502182007 | 15 | 280 | 6.4 | 9.7 | 0.00 | 0.03 | 0.03 | 53 | 1020.3 |
| 20260502181519 | 15 | 280 | 6.4 | 9.7 | 0.00 | 0.03 | 0.03 | 56 | 1020.3 |
| 20260502181006 | 15 | 280 | 4.8 | 6.4 | 0.00 | 0.03 | 0.03 | 52 | 1020.3 |
| 20260502180504 | 15 | 280 | 3.2 | 4.8 | 0.00 | 0.03 | 0.03 | 54 | 1020.5 |
| 20260502170505 | 12 | 285 | 8.0 | 11.3 | 0.00 | 0.03 | 0.03 | 65 | 1020.8 |
| 20260502164009 | 14 | 308 | 6.4 | 16.1 | 0.00 | 0.03 | 0.03 | 49 | 1020.8 |
| 20260502163509 | 14 | 308 | 12.9 | 16.1 | 0.00 | 0.03 | 0.03 | 51 | 1020.9 |
| 20260502163026 | 14 | 305 | 1.6 | 12.9 | 0.00 | 0.03 | 0.03 | 52 | 1020.9 |
| 20260502162510 | 14 | 305 | 6.4 | 12.9 | 0.00 | 0.03 | 0.03 | 51 | 1020.9 |
| 20260502162011 | 13 | 305 | 4.8 | 11.3 | 0.00 | 0.03 | 0.03 | 51 | 1020.9 |
| 20260502161006 | 13 | 305 | 1.6 | 14.5 | 0.00 | 0.03 | 0.03 | 59 | 1021.0 |
| 20260502160514 | 13 | 305 | 3.2 | 12.9 | 0.00 | 0.03 | 0.03 | 54 | 1021.1 |
| 20260502152012 | 11 | 290 | 9.7 | 14.5 | 0.00 | 0.03 | 0.03 | 69 | 1021.1 |
| 20260502151524 | 11 | 289 | 9.7 | 14.5 | 0.00 | 0.03 | 0.03 | 71 | 1021.0 |
| 20260502151003 | 10 | 286 | 9.7 | 14.5 | 0.00 | 0.03 | 0.03 | 73 | 1021.0 |
| 20260502150507 | 10 | 286 | 8.0 | 11.3 | 0.00 | 0.03 | 0.03 | 73 | 1021.0 |
| 20260502130509 | 7 | 315 | 6.4 | 9.7 | 0.00 | 0.03 | 0.03 | 88 | 1020.6 |
| 20260502123514 | 7 | 315 | 9.7 | 12.9 | 0.00 | 0.03 | 0.03 | 88 | 1020.5 |
| 20260502123012 | 6 | 315 | 9.7 | 12.9 | 0.00 | 0.03 | 0.03 | 87 | 1020.5 |
| 20260502122506 | 6 | 315 | 8.0 | 9.7 | 0.00 | 0.03 | 0.03 | 86 | 1020.6 |
| 20260502122006 | 6 | 315 | 6.4 | 9.7 | 0.00 | 0.03 | 0.03 | 85 | 1020.6 |
| 20260502121514 | 7 | 315 | 6.4 | 8.0 | 0.00 | 0.03 | 0.03 | 85 | 1020.6 |
| 20260502121006 | 7 | 315 | 6.4 | 8.0 | 0.00 | 0.03 | 0.03 | 85 | 1020.6 |
| 20260502120525 | 7 | 315 | 4.8 | 9.7 | 0.00 | 0.03 | 0.03 | 84 | 1020.6 |
| 20260502115510 | 7 | 315 | 8.0 | 12.9 | 0.00 | 0.03 | 0.03 | 84 | 1020.8 |
| 20260502115022 | 7 | 315 | 8.0 | 12.9 | 0.00 | 0.03 | 0.03 | 84 | 1020.7 |
| 20260502114522 | 7 | 315 | 9.7 | 12.9 | 0.00 | 0.03 | 0.03 | 85 | 1020.8 |
| 20260502114007 | 7 | 315 | 8.0 | 12.9 | 0.03 | 0.03 | 0.03 | 85 | 1020.7 |
| 20260502113503 | 8 | 315 | 6.4 | 9.7 | 0.03 | 0.03 | 0.03 | 85 | 1020.8 |
| 20260502113009 | 8 | 315 | 6.4 | 9.7 | 0.03 | 0.03 | 0.03 | 85 | 1020.7 |
| 20260502112504 | 8 | 315 | 6.4 | 9.7 | 0.03 | 0.03 | 0.03 | 85 | 1020.8 |
| 20260502112009 | 8 | 315 | 6.4 | 9.7 | 0.03 | 0.03 | 0.03 | 84 | 1020.8 |
| 20260502111516 | 8 | 315 | 8.0 | 9.7 | 0.03 | 0.03 | 0.03 | 84 | 1020.7 |
| 20260502111007 | 8 | 315 | 6.4 | 12.9 | 0.03 | 0.03 | 0.03 | 82 | 1020.7 |
| 20260502110510 | 8 | 315 | 6.4 | 12.9 | 0.03 | 0.03 | 0.03 | 82 | 1020.7 |
| 20260502110016 | 8 | 316 | 6.4 | 12.9 | 0.03 | 0.03 | 0.03 | 82 | 1020.7 |
| 20260502105523 | 7 | 316 | 8.0 | 12.9 | 0.03 | 0.03 | 0.03 | 81 | 1020.7 |
| 20260502105010 | 7 | 319 | 9.7 | 14.5 | 0.03 | 0.03 | 0.03 | 80 | 1020.7 |
| 20260502104519 | 7 | 321 | 6.4 | 14.5 | 0.03 | 0.03 | 0.03 | 79 | 1020.7 |
| 20260502104013 | 7 | 321 | 8.0 | 12.9 | 0.00 | 0.00 | 0.00 | 77 | 1020.8 |
| 20260502103506 | 7 | 321 | 6.4 | 9.7 | 0.00 | 0.00 | 0.00 | 76 | 1020.6 |
| 20260502103053 | 7 | 321 | 4.8 | 8.0 | 0.00 | 0.00 | 0.00 | 76 | 1020.6 |
| 20260502102520 | 7 | 321 | 6.4 | 8.0 | 0.00 | 0.00 | 0.00 | 76 | 1020.7 |
| 20260502102010 | 7 | 321 | 6.4 | 9.7 | 0.00 | 0.00 | 0.00 | 78 | 1020.6 |
| 20260502101508 | 6 | 321 | 6.4 | 9.7 | 0.00 | 0.00 | 0.00 | 78 | 1020.6 |
| 20260502101004 | 6 | 321 | 6.4 | 9.7 | 0.00 | 0.00 | 0.00 | 76 | 1020.5 |
| 20260502100507 | 6 | 321 | 8.0 | 9.7 | 0.00 | 0.00 | 0.00 | 77 | 1020.5 |
| 20260502091526 | 7 | 319 | 8.0 | 12.9 | 0.00 | 0.00 | 0.00 | 71 | 1020.1 |
| 20260502091016 | 8 | 319 | 9.7 | 16.1 | 0.00 | 0.00 | 0.00 | 70 | 1020.1 |
| 20260502090507 | 8 | 319 | 11.3 | 16.1 | 0.00 | 0.00 | 0.00 | 69 | 1020.2 |
| 20260502071521 | 10 | 322 | 17.7 | 22.5 | 0.00 | 0.00 | 0.00 | 62 | 1019.3 |
| 20260502071010 | 10 | 327 | 17.7 | 20.9 | 0.00 | 0.00 | 0.00 | 61 | 1019.1 |
| 20260502070510 | 10 | 326 | 14.5 | 19.3 | 0.00 | 0.00 | 0.00 | 61 | 1019.0 |
| 20260502070022 | 11 | 338 | 14.5 | 24.1 | 0.00 | 0.00 | 0.00 | 60 | 1018.9 |
| 20260502065508 | 11 | 349 | 14.5 | 24.1 | 0.00 | 0.00 | 0.00 | 59 | 1018.7 |
| 20260502065014 | 11 | 360 | 14.5 | 24.1 | 0.00 | 0.00 | 0.00 | 59 | 1018.5 |
| 20260502064526 | 11 | 11 | 16.1 | 24.1 | 0.00 | 0.00 | 0.00 | 59 | 1018.5 |
| 20260502064015 | 11 | 5 | 16.1 | 25.7 | 0.00 | 0.00 | 0.00 | 59 | 1018.3 |
| 20260502063510 | 11 | 360 | 17.7 | 25.7 | 0.00 | 0.00 | 0.00 | 59 | 1018.1 |
| 20260502063028 | 11 | 13 | 17.7 | 24.1 | 0.00 | 0.00 | 0.00 | 59 | 1018.0 |
| 20260502062541 | 11 | 5 | 16.1 | 27.4 | 0.00 | 0.00 | 0.00 | 59 | 1018.0 |
| 20260502062010 | 11 | 347 | 19.3 | 27.4 | 0.00 | 0.00 | 0.00 | 58 | 1017.9 |
| 20260502061516 | 11 | 5 | 19.3 | 30.6 | 0.00 | 0.00 | 0.00 | 57 | 1017.8 |
| 20260502061041 | 11 | 360 | 17.7 | 37.0 | 0.00 | 0.00 | 0.00 | 56 | 1017.6 |
| 20260502060507 | 12 | 10 | 25.7 | 37.0 | 0.00 | 0.00 | 0.00 | 55 | 1017.5 |
| 20260502060023 | 12 | 5 | 20.9 | 35.4 | 0.00 | 0.00 | 0.00 | 54 | 1017.4 |
| 20260502055510 | 12 | 18 | 24.1 | 35.4 | 0.00 | 0.00 | 0.00 | 53 | 1017.2 |
| 20260502055008 | 12 | 19 | 25.7 | 41.8 | 0.00 | 0.00 | 0.00 | 52 | 1017.1 |
| 20260502054534 | 12 | 27 | 24.1 | 41.8 | 0.00 | 0.00 | 0.00 | 51 | 1017.1 |
| 20260502054002 | 13 | 24 | 24.1 | 40.2 | 0.00 | 0.00 | 0.00 | 51 | 1017.0 |
| 20260502053504 | 13 | 20 | 29.0 | 40.2 | 0.00 | 0.00 | 0.00 | 50 | 1016.9 |
| 20260502053004 | 13 | 21 | 29.0 | 40.2 | 0.00 | 0.00 | 0.00 | 50 | 1016.8 |
| 20260502052504 | 13 | 15 | 25.7 | 38.6 | 0.00 | 0.00 | 0.00 | 50 | 1016.7 |
| 20260502052004 | 13 | 18 | 27.4 | 40.2 | 0.00 | 0.00 | 0.00 | 49 | 1016.6 |
| 20260502051503 | 13 | 9 | 29.0 | 45.1 | 0.00 | 0.00 | 0.00 | 48 | 1016.6 |
| 20260502051003 | 13 | 19 | 29.0 | 45.1 | 0.00 | 0.00 | 0.00 | 48 | 1016.4 |
| 20260502050504 | 13 | 10 | 29.0 | 38.6 | 0.00 | 0.00 | 0.00 | 49 | 1016.3 |
| 20260502050004 | 13 | 21 | 27.4 | 46.7 | 0.00 | 0.00 | 0.00 | 49 | 1016.2 |
| 20260502045504 | 14 | 41 | 29.0 | 46.7 | 0.00 | 0.00 | 0.00 | 50 | 1016.1 |
| 20260502045004 | 14 | 46 | 30.6 | 41.8 | 0.00 | 0.00 | 0.00 | 50 | 1016.1 |
| 20260502044505 | 14 | 36 | 30.6 | 41.8 | 0.00 | 0.00 | 0.00 | 50 | 1016.0 |
| 20260502044005 | 14 | 32 | 29.0 | 38.6 | 0.00 | 0.00 | 0.00 | 49 | 1015.9 |
| 20260502043506 | 14 | 23 | 24.1 | 33.8 | 0.00 | 0.00 | 0.00 | 49 | 1015.8 |
| 20260502043004 | 13 | 12 | 20.9 | 29.0 | 0.00 | 0.00 | 0.00 | 48 | 1015.8 |
| 20260502042504 | 13 | 360 | 19.3 | 25.7 | 0.00 | 0.00 | 0.00 | 47 | 1015.9 |
| 20260502042004 | 12 | 355 | 14.5 | 24.1 | 0.00 | 0.00 | 0.00 | 46 | 1015.8 |
| 20260502041549 | 12 | 355 | 17.7 | 24.1 | 0.00 | 0.00 | 0.00 | 45 | 1015.8 |
| 20260502041004 | 12 | 355 | 14.5 | 19.3 | 0.00 | 0.00 | 0.00 | 43 | 1015.7 |
| 20260502040504 | 12 | 355 | 14.5 | 19.3 | 0.00 | 0.00 | 0.00 | 42 | 1015.5 |
| 20260502040007 | 13 | 355 | 14.5 | 17.7 | 0.00 | 0.00 | 0.00 | 41 | 1015.3 |
| 20260502035503 | 13 | 355 | 12.9 | 22.5 | 0.00 | 0.00 | 0.00 | 39 | 1015.5 |
| 20260502035004 | 14 | 355 | 14.5 | 22.5 | 0.00 | 0.00 | 0.00 | 38 | 1015.3 |
| 20260502034509 | 14 | 355 | 16.1 | 22.5 | 0.00 | 0.00 | 0.00 | 37 | 1015.4 |
| 20260502034010 | 15 | 355 | 14.5 | 22.5 | 0.00 | 0.00 | 0.00 | 37 | 1015.3 |
| 20260502033504 | 14 | 355 | 16.1 | 20.9 | 0.00 | 0.00 | 0.00 | 37 | 1015.2 |